Time;durP1;ratioP1;P1;durP2;ratioP2;P2;SDS_P1;SDS_P2;PMS_P1;PMS_P2;Temp;Humidity;BMP_temperature;BMP_pressure;BME280_temperature;BME280_humidity;BME280_pressure;Samples;Min_cycle;Max_cycle;Signal;HPM_P1;HPM_P2
2023/08/09 00:00:33;;;;;;;2.47;1.90;;;12.00;99.90;;;;;;5133302;27;20141;-72
2023/08/09 00:03:03;;;;;;;1.77;1.67;;;11.30;99.90;;;;;;5126544;27;20050;-73
2023/08/09 00:05:28;;;;;;;4.20;1.60;;;12.00;99.90;;;;;;5132033;27;20046;-73
2023/08/09 00:07:54;;;;;;;3.50;1.90;;;12.00;99.90;;;;;;5124391;27;20043;-73
2023/08/09 00:10:21;;;;;;;2.05;1.52;;;11.90;99.90;;;;;;5111641;27;20051;-72
2023/08/09 00:12:48;;;;;;;5.63;1.60;;;11.90;99.90;;;;;;5126706;27;20093;-73
2023/08/09 00:15:14;;;;;;;3.80;2.08;;;11.90;99.90;;;;;;5141365;27;20801;-73
2023/08/09 00:17:39;;;;;;;4.20;1.70;;;11.90;99.90;;;;;;5125750;27;20055;-73
2023/08/09 00:20:09;;;;;;;3.97;1.80;;;11.90;99.90;;;;;;5138362;27;20043;-73
2023/08/09 00:22:35;;;;;;;4.85;2.33;;;11.80;99.90;;;;;;5136259;27;20049;-73
2023/08/09 00:25:01;;;;;;;3.25;1.60;;;11.80;99.90;;;;;;5116838;27;20043;-73
2023/08/09 00:27:28;;;;;;;2.08;1.63;;;11.80;99.90;;;;;;5136645;27;20089;-74
2023/08/09 00:29:54;;;;;;;2.30;1.50;;;12.30;99.90;;;;;;5115802;27;20090;-73
2023/08/09 00:32:20;;;;;;;2.50;1.80;;;11.80;99.90;;;;;;5135813;27;20051;-73
2023/08/09 00:34:46;;;;;;;3.83;1.70;;;11.80;99.90;;;;;;5133317;27;20650;-73
2023/08/09 00:37:11;;;;;;;2.83;1.75;;;11.80;99.90;;;;;;5144492;27;20081;-72
2023/08/09 00:39:37;;;;;;;5.05;1.73;;;11.80;99.90;;;;;;5129310;27;20055;-72
2023/08/09 00:42:03;;;;;;;2.97;2.05;;;11.70;99.90;;;;;;5099130;27;20403;-72
2023/08/09 00:44:29;;;;;;;3.20;1.50;;;11.70;99.90;;;;;;5132949;27;20066;-73
2023/08/09 00:46:55;;;;;;;4.15;1.75;;;11.70;99.90;;;;;;5123923;27;20043;-72
2023/08/09 00:49:21;;;;;;;2.03;1.50;;;11.70;99.90;;;;;;5129442;27;20042;-73
2023/08/09 00:51:47;;;;;;;2.63;1.85;;;11.60;99.90;;;;;;5124520;27;20050;-73
2023/08/09 00:54:13;;;;;;;3.45;1.88;;;11.60;99.90;;;;;;5131556;27;20043;-72
2023/08/09 00:56:39;;;;;;;2.22;1.42;;;11.60;99.90;;;;;;5134873;27;20043;-74
2023/08/09 00:59:05;;;;;;;2.60;2.05;;;11.60;99.90;;;;;;5121512;27;20498;-73
2023/08/09 01:01:30;;;;;;;5.20;1.75;;;11.60;99.90;;;;;;5134191;27;20055;-72
2023/08/09 01:03:56;;;;;;;3.75;1.85;;;11.50;99.90;;;;;;5130706;27;20070;-75
2023/08/09 01:06:37;;;;;;;4.28;1.83;;;11.50;99.90;;;;;;5139941;27;20406;-73
2023/08/09 01:09:24;;;;;;;1.73;1.23;;;11.60;99.90;;;;;;5141035;27;20049;-72
2023/08/09 01:12:07;;;;;;;2.10;1.55;;;11.50;99.90;;;;;;5123351;27;20161;-72
2023/08/09 01:14:33;;;;;;;3.50;1.63;;;11.50;99.90;;;;;;5124403;27;20054;-72
2023/08/09 01:17:01;;;;;;;4.55;2.00;;;11.50;99.90;;;;;;5124038;27;20469;-73
2023/08/09 01:19:31;;;;;;;2.95;2.05;;;11.40;99.90;;;;;;5123601;27;20107;-76
2023/08/09 01:21:59;;;;;;;4.75;2.25;;;11.40;99.90;;;;;;5123989;27;20511;-72
2023/08/09 01:24:25;;;;;;;3.00;1.58;;;11.30;99.90;;;;;;5104033;27;20474;-73
2023/08/09 01:26:51;;;;;;;3.65;2.10;;;11.30;99.90;;;;;;5131406;27;20501;-74
2023/08/09 01:29:17;;;;;;;3.45;1.60;;;11.40;99.90;;;;;;5127047;27;20063;-72
2023/08/09 01:31:43;;;;;;;7.60;2.42;;;11.30;99.90;;;;;;5131060;27;20526;-74
2023/08/09 01:34:09;;;;;;;1.77;1.42;;;11.30;99.90;;;;;;5140861;27;20043;-74
2023/08/09 01:36:38;;;;;;;2.20;1.60;;;11.30;99.90;;;;;;5134086;27;20100;-72
2023/08/09 01:39:12;;;;;;;2.90;1.83;;;11.30;99.90;;;;;;5131671;27;20856;-73
2023/08/09 01:41:39;;;;;;;4.32;2.33;;;11.20;99.90;;;;;;5122808;27;20639;-73
2023/08/09 01:44:07;;;;;;;2.70;2.08;;;11.20;99.90;;;;;;5103871;27;20055;-72
2023/08/09 01:46:34;;;;;;;3.58;1.88;;;11.20;99.90;;;;;;5123055;27;20054;-73
2023/08/09 01:49:14;;;;;;;2.30;2.10;;;11.20;99.90;;;;;;5134004;27;20058;-75
2023/08/09 01:51:40;;;;;;;2.22;1.95;;;11.20;99.90;;;;;;5131259;27;20055;-74
2023/08/09 01:54:07;;;;;;;3.85;2.40;;;11.10;99.90;;;;;;5137261;27;20067;-72
2023/08/09 01:56:33;;;;;;;4.15;2.10;;;11.20;99.90;;;;;;5102484;27;20100;-75
2023/08/09 01:58:59;;;;;;;2.78;1.90;;;11.10;99.90;;;;;;5107720;27;20039;-74
2023/08/09 02:01:26;;;;;;;3.78;1.80;;;11.20;99.90;;;;;;5143061;27;20056;-76
2023/08/09 02:03:51;;;;;;;3.08;1.90;;;11.10;99.90;;;;;;5126774;27;20145;-75
2023/08/09 02:06:17;;;;;;;3.45;1.88;;;11.10;99.90;;;;;;5142017;27;20053;-73
2023/08/09 02:08:43;;;;;;;3.20;2.15;;;11.10;99.90;;;;;;5132117;27;20042;-76
2023/08/09 02:11:09;;;;;;;3.90;2.13;;;11.10;99.90;;;;;;5128414;27;20469;-75
2023/08/09 02:13:35;;;;;;;3.53;1.83;;;11.10;99.90;;;;;;5136822;27;20049;-77
2023/08/09 02:16:04;;;;;;;2.60;1.80;;;11.10;99.90;;;;;;5131592;27;20164;-73
2023/08/09 02:18:30;;;;;;;2.55;1.73;;;11.10;99.90;;;;;;5109966;27;20047;-73
2023/08/09 02:20:58;;;;;;;4.63;2.55;;;11.00;99.90;;;;;;5134717;27;20050;-74
2023/08/09 02:23:24;;;;;;;4.57;2.28;;;11.00;99.90;;;;;;5135918;27;20238;-73
2023/08/09 02:25:53;;;;;;;2.28;1.80;;;10.90;99.90;;;;;;5123237;27;20049;-73
2023/08/09 02:28:18;;;;;;;6.10;2.25;;;11.00;99.90;;;;;;5125971;27;20138;-74
2023/08/09 02:30:45;;;;;;;3.38;2.10;;;10.90;99.90;;;;;;5129332;27;20088;-73
2023/08/09 02:33:11;;;;;;;3.65;1.88;;;10.90;99.90;;;;;;5139982;27;20083;-73
2023/08/09 02:36:00;;;;;;;3.53;1.90;;;10.90;99.90;;;;;;5122772;27;20071;-74
2023/08/09 02:38:27;;;;;;;3.15;2.33;;;10.90;99.90;;;;;;5140658;27;20092;-74
2023/08/09 02:40:53;;;;;;;2.83;2.42;;;10.90;99.90;;;;;;5123935;27;20050;-73
2023/08/09 02:43:19;;;;;;;2.05;1.85;;;10.90;99.90;;;;;;5134424;27;20043;-74
2023/08/09 02:45:45;;;;;;;2.53;1.98;;;10.80;99.90;;;;;;5134467;27;20394;-77
2023/08/09 02:48:12;;;;;;;4.10;2.05;;;10.80;99.90;;;;;;5122580;27;20051;-75
2023/08/09 02:50:39;;;;;;;2.35;2.10;;;10.80;99.90;;;;;;5103137;27;20078;-73
2023/08/09 02:53:05;;;;;;;3.75;2.28;;;10.80;99.90;;;;;;5134738;27;20074;-73
2023/08/09 02:55:35;;;;;;;3.13;1.80;;;10.80;99.90;;;;;;5134740;27;20050;-73
2023/08/09 02:58:03;;;;;;;3.20;2.15;;;10.70;99.90;;;;;;5122740;27;20053;-74
2023/08/09 03:00:29;;;;;;;3.83;2.15;;;10.80;99.90;;;;;;5123280;27;20096;-76
2023/08/09 03:02:55;;;;;;;4.65;2.50;;;10.70;99.90;;;;;;5140419;27;20506;-73
2023/08/09 03:05:21;;;;;;;6.05;2.53;;;10.70;99.90;;;;;;5128609;27;20093;-76
2023/08/09 03:07:46;;;;;;;3.03;2.33;;;10.70;99.90;;;;;;5110039;27;20514;-75
2023/08/09 03:10:12;;;;;;;4.30;2.67;;;10.70;99.90;;;;;;5106806;27;20050;-73
2023/08/09 03:12:38;;;;;;;2.72;2.13;;;10.70;99.90;;;;;;5133102;27;20078;-76
2023/08/09 03:15:05;;;;;;;3.05;1.83;;;10.70;99.90;;;;;;5134668;27;20042;-74
2023/08/09 03:17:31;;;;;;;4.32;2.38;;;10.70;99.90;;;;;;5126632;27;20057;-73
2023/08/09 03:19:57;;;;;;;3.78;2.10;;;10.70;99.90;;;;;;5128482;27;20046;-72
2023/08/09 03:22:23;;;;;;;4.25;2.08;;;10.70;99.90;;;;;;5114131;27;20058;-74
2023/08/09 03:24:50;;;;;;;3.88;2.10;;;10.70;99.90;;;;;;5132481;27;20578;-76
2023/08/09 03:27:16;;;;;;;2.47;2.30;;;10.60;99.90;;;;;;5105398;27;20050;-74
2023/08/09 03:29:43;;;;;;;3.17;1.98;;;10.60;99.90;;;;;;5129882;27;20078;-74
2023/08/09 03:32:08;;;;;;;3.67;2.40;;;10.60;99.90;;;;;;5138393;27;20047;-74
2023/08/09 03:34:34;;;;;;;3.05;2.47;;;10.60;99.90;;;;;;5142582;27;20050;-73
2023/08/09 03:37:00;;;;;;;2.83;2.22;;;10.50;99.90;;;;;;5136583;27;20058;-73
2023/08/09 03:39:26;;;;;;;4.32;2.75;;;10.60;99.90;;;;;;5122483;27;20092;-73
2023/08/09 03:41:52;;;;;;;3.97;2.15;;;10.60;99.90;;;;;;5125052;27;20046;-76
2023/08/09 03:44:17;;;;;;;3.42;2.55;;;10.60;99.90;;;;;;5126630;27;20372;-73
2023/08/09 03:46:43;;;;;;;2.05;1.85;;;10.50;99.90;;;;;;5138052;27;20483;-73
2023/08/09 03:49:09;;;;;;;3.42;2.90;;;10.60;99.90;;;;;;5125648;27;20073;-75
2023/08/09 03:51:35;;;;;;;3.63;2.75;;;10.50;99.90;;;;;;5124629;27;20095;-73
2023/08/09 03:54:00;;;;;;;3.90;2.28;;;10.50;99.90;;;;;;5141035;27;20098;-75
2023/08/09 03:56:27;;;;;;;4.53;2.95;;;10.50;99.90;;;;;;5113975;27;20039;-74
2023/08/09 03:58:53;;;;;;;3.15;2.40;;;10.50;99.90;;;;;;5138231;27;20502;-73
2023/08/09 04:01:19;;;;;;;2.50;2.30;;;10.50;99.90;;;;;;5139750;27;20035;-74
2023/08/09 04:03:44;;;;;;;3.13;2.70;;;10.50;99.90;;;;;;5142121;27;20089;-73
2023/08/09 04:06:14;;;;;;;5.18;2.60;;;10.40;99.90;;;;;;5108339;27;20486;-73
2023/08/09 04:08:39;;;;;;;3.67;2.65;;;10.50;99.90;;;;;;5143904;27;20397;-74
2023/08/09 04:11:05;;;;;;;4.72;2.67;;;10.40;99.90;;;;;;5125841;27;20043;-73
2023/08/09 04:13:31;;;;;;;3.00;2.65;;;10.40;99.90;;;;;;5139758;27;20047;-78
2023/08/09 04:15:57;;;;;;;4.50;2.78;;;10.50;99.90;;;;;;5113858;27;20041;-74
2023/08/09 04:18:22;;;;;;;3.72;2.80;;;10.50;99.90;;;;;;5129703;27;20050;-72
2023/08/09 04:20:50;;;;;;;6.00;2.78;;;10.50;99.90;;;;;;5132080;27;20081;-74
2023/08/09 04:23:16;;;;;;;4.38;2.58;;;10.50;99.90;;;;;;5131852;27;20510;-74
2023/08/09 04:25:41;;;;;;;2.70;2.45;;;10.50;99.90;;;;;;5129737;27;20104;-75
2023/08/09 04:28:08;;;;;;;5.15;4.63;;;10.50;99.90;;;;;;5140042;27;20133;-73
2023/08/09 04:30:35;;;;;;;3.03;2.42;;;10.50;99.90;;;;;;5138648;27;20050;-75
2023/08/09 04:33:03;;;;;;;3.10;2.60;;;10.50;99.90;;;;;;5124895;27;20047;-73
2023/08/09 04:35:30;;;;;;;2.67;2.40;;;10.50;99.90;;;;;;5130725;27;20035;-73
2023/08/09 04:37:56;;;;;;;4.40;2.85;;;10.50;99.90;;;;;;5143953;27;20045;-74
2023/08/09 04:40:24;;;;;;;2.60;2.35;;;10.50;99.90;;;;;;5132978;27;20398;-75
2023/08/09 04:42:51;;;;;;;4.57;2.83;;;10.50;99.90;;;;;;5132906;27;20050;-74
2023/08/09 04:45:17;;;;;;;4.05;2.60;;;10.60;99.90;;;;;;5126100;27;20043;-77
2023/08/09 04:47:43;;;;;;;4.40;2.83;;;10.60;99.90;;;;;;5121727;27;20058;-76
2023/08/09 04:50:10;;;;;;;3.40;2.90;;;10.70;99.90;;;;;;5126866;27;20049;-73
2023/08/09 04:52:38;;;;;;;3.78;2.97;;;10.70;99.90;;;;;;5126863;27;20650;-76
2023/08/09 04:55:05;;;;;;;3.63;2.78;;;10.70;99.90;;;;;;5129530;27;20043;-75
2023/08/09 04:57:31;;;;;;;4.28;2.83;;;10.80;99.90;;;;;;5126623;27;20047;-73
2023/08/09 04:59:57;;;;;;;5.65;2.85;;;10.80;99.90;;;;;;5128404;27;20046;-75
2023/08/09 05:02:24;;;;;;;3.42;2.35;;;10.80;99.90;;;;;;5119815;27;20851;-74
2023/08/09 05:04:49;;;;;;;5.57;2.65;;;10.90;99.90;;;;;;5121125;27;20043;-73
2023/08/09 05:07:15;;;;;;;4.68;3.45;;;11.00;99.90;;;;;;5126477;27;20099;-74
2023/08/09 05:09:41;;;;;;;4.97;2.80;;;11.00;99.90;;;;;;5140315;27;20163;-73
2023/08/09 05:12:07;;;;;;;4.63;2.92;;;11.10;99.90;;;;;;5124741;27;20050;-77
2023/08/09 05:14:32;;;;;;;6.40;3.20;;;11.10;99.90;;;;;;5103069;27;20537;-76
2023/08/09 05:16:58;;;;;;;5.93;2.70;;;11.20;99.90;;;;;;5133945;27;20039;-73
2023/08/09 05:19:24;;;;;;;2.40;2.20;;;11.30;99.90;;;;;;5131908;27;20074;-75
2023/08/09 05:21:50;;;;;;;3.63;2.20;;;11.30;99.90;;;;;;5121357;27;20047;-73
2023/08/09 05:24:15;;;;;;;5.72;3.10;;;11.50;99.90;;;;;;5132774;27;20046;-75
2023/08/09 05:26:41;;;;;;;3.97;2.95;;;11.60;99.90;;;;;;5121111;27;20047;-74
2023/08/09 05:29:07;;;;;;;4.22;2.70;;;11.60;99.90;;;;;;5133304;27;20111;-76
2023/08/09 05:31:33;;;;;;;4.28;2.78;;;11.70;99.90;;;;;;5107789;27;20697;-74
2023/08/09 05:33:58;;;;;;;4.78;2.88;;;11.80;99.90;;;;;;5126347;27;20047;-73
2023/08/09 05:36:24;;;;;;;5.70;2.97;;;11.90;99.90;;;;;;5129680;27;20167;-74
2023/08/09 05:38:50;;;;;;;7.10;2.45;;;12.00;99.90;;;;;;5110410;27;20047;-73
2023/08/09 05:41:16;;;;;;;3.22;2.20;;;12.00;99.90;;;;;;5131509;27;20078;-75
2023/08/09 05:43:42;;;;;;;5.18;2.47;;;12.10;99.90;;;;;;5124096;27;20050;-73
2023/08/09 05:46:08;;;;;;;2.13;1.92;;;12.20;99.90;;;;;;5133016;27;20042;-73
2023/08/09 05:48:34;;;;;;;4.45;2.40;;;12.30;99.90;;;;;;5135175;27;20759;-74
2023/08/09 05:50:59;;;;;;;5.50;2.53;;;12.40;99.90;;;;;;5122426;27;20038;-73
2023/08/09 05:53:25;;;;;;;6.57;2.83;;;12.50;99.90;;;;;;5130188;27;20085;-73
2023/08/09 05:55:51;;;;;;;3.13;2.60;;;12.60;99.90;;;;;;5123777;27;20043;-73
2023/08/09 05:58:16;;;;;;;2.95;1.92;;;12.70;99.90;;;;;;5130339;27;20047;-75
2023/08/09 06:00:42;;;;;;;3.97;2.22;;;12.80;99.90;;;;;;5129899;27;20118;-76
2023/08/09 06:03:08;;;;;;;2.55;2.08;;;12.80;99.90;;;;;;5096249;27;20054;-74
2023/08/09 06:05:34;;;;;;;6.00;2.08;;;12.90;99.90;;;;;;5122265;27;20467;-73
2023/08/09 06:07:59;;;;;;;2.58;2.20;;;13.00;99.90;;;;;;5135430;27;20586;-75
2023/08/09 06:10:25;;;;;;;3.00;1.95;;;13.10;99.90;;;;;;5128274;27;20642;-72
2023/08/09 06:12:54;;;;;;;3.75;2.40;;;13.20;99.90;;;;;;5095499;27;20234;-74
2023/08/09 06:15:21;;;;;;;5.35;2.40;;;13.30;99.90;;;;;;5125343;27;20089;-73
2023/08/09 06:17:47;;;;;;;3.13;1.73;;;13.40;99.90;;;;;;5119808;27;20501;-76
2023/08/09 06:20:13;;;;;;;2.33;1.95;;;13.50;99.90;;;;;;5115350;27;20094;-74
2023/08/09 06:22:39;;;;;;;4.57;2.33;;;13.60;99.90;;;;;;5134465;27;20149;-73
2023/08/09 06:25:06;;;;;;;3.33;1.92;;;13.70;99.90;;;;;;5128122;27;20042;-74
2023/08/09 06:27:32;;;;;;;2.72;1.67;;;13.80;99.90;;;;;;5140207;27;20050;-73
2023/08/09 06:29:58;;;;;;;2.72;1.52;;;13.90;99.90;;;;;;5129464;27;20058;-73
2023/08/09 06:32:24;;;;;;;3.20;2.28;;;14.00;99.90;;;;;;5120474;27;20056;-73
2023/08/09 06:34:49;;;;;;;2.58;2.00;;;14.10;99.90;;;;;;5125429;27;20831;-73
2023/08/09 06:37:15;;;;;;;3.47;2.05;;;14.30;99.90;;;;;;5128849;27;20066;-73
2023/08/09 06:39:41;;;;;;;4.15;2.30;;;14.10;99.90;;;;;;5130768;27;20081;-73
2023/08/09 06:42:08;;;;;;;2.17;1.50;;;14.50;99.90;;;;;;5110281;27;20051;-76
2023/08/09 06:44:34;;;;;;;2.15;1.83;;;14.60;99.90;;;;;;5101551;27;20055;-74
2023/08/09 06:47:00;;;;;;;2.55;1.88;;;14.80;99.90;;;;;;5129796;27;20034;-74
2023/08/09 06:49:25;;;;;;;3.47;1.90;;;15.00;99.90;;;;;;5124821;27;20049;-76
2023/08/09 06:51:51;;;;;;;3.58;1.70;;;15.10;99.90;;;;;;5139068;27;20490;-74
2023/08/09 06:54:17;;;;;;;4.65;1.60;;;15.50;99.90;;;;;;5132929;27;20054;-73
2023/08/09 06:56:42;;;;;;;4.60;1.60;;;16.40;99.90;;;;;;5131890;27;20548;-75
2023/08/09 06:59:08;;;;;;;2.38;1.88;;;17.80;99.90;;;;;;5112291;27;20047;-77
2023/08/09 07:01:34;;;;;;;4.22;1.55;;;19.20;99.90;;;;;;5102416;27;20047;-74
2023/08/09 07:04:00;;;;;;;3.45;1.40;;;20.40;99.90;;;;;;5134012;27;20483;-77
2023/08/09 07:06:26;;;;;;;1.80;1.52;;;21.40;99.90;;;;;;5126373;27;20030;-74
2023/08/09 07:08:54;;;;;;;2.25;1.45;;;22.30;99.90;;;;;;5139819;27;20065;-77
2023/08/09 07:11:21;;;;;;;5.18;1.25;;;23.00;99.90;;;;;;5139769;27;20046;-74
2023/08/09 07:13:47;;;;;;;4.30;1.50;;;23.60;99.90;;;;;;5128150;27;20047;-75
2023/08/09 07:16:12;;;;;;;4.43;1.10;;;24.20;99.90;;;;;;5121589;27;20039;-73
2023/08/09 07:18:38;;;;;;;1.30;1.00;;;24.50;99.90;;;;;;5131632;27;20047;-75
2023/08/09 07:21:04;;;;;;;2.58;1.08;;;24.90;99.90;;;;;;5110851;27;20135;-73
2023/08/09 07:23:31;;;;;;;2.38;0.90;;;25.20;99.30;;;;;;5129200;27;20131;-76
2023/08/09 07:25:57;;;;;;;2.05;1.13;;;25.00;98.50;;;;;;5124763;27;20091;-77
2023/08/09 07:28:24;;;;;;;2.22;1.00;;;25.40;97.60;;;;;;5140676;27;20085;-74
2023/08/09 07:30:52;;;;;;;2.42;0.80;;;25.70;97.50;;;;;;5137859;27;20192;-74
2023/08/09 07:33:21;;;;;;;2.42;0.90;;;26.20;96.50;;;;;;5112881;27;20057;-73
2023/08/09 07:35:48;;;;;;;1.45;0.90;;;26.10;96.00;;;;;;5139605;27;20081;-77
2023/08/09 07:38:15;;;;;;;3.28;1.27;;;26.30;95.70;;;;;;5129926;27;20057;-73
2023/08/09 07:40:41;;;;;;;2.88;1.27;;;25.90;94.60;;;;;;5100459;28;20126;-74
2023/08/09 07:43:07;;;;;;;2.58;1.30;;;26.20;94.90;;;;;;5129640;27;20081;-77
2023/08/09 07:45:32;;;;;;;2.05;1.05;;;25.90;94.30;;;;;;5115428;28;20043;-74
2023/08/09 07:47:58;;;;;;;2.45;1.00;;;26.10;93.20;;;;;;5129325;27;20119;-74
2023/08/09 07:50:24;;;;;;;2.22;0.93;;;26.50;94.00;;;;;;5125961;27;20047;-74
2023/08/09 07:52:50;;;;;;;0.82;0.80;;;27.00;93.50;;;;;;5119101;27;20057;-74
2023/08/09 07:55:16;;;;;;;2.42;0.80;;;27.20;92.60;;;;;;5119230;27;20059;-75
2023/08/09 07:57:42;;;;;;;1.13;0.85;;;27.10;92.60;;;;;;5119473;27;20038;-77
2023/08/09 08:00:17;;;;;;;3.28;1.02;;;27.00;92.00;;;;;;5118673;27;20047;-75
2023/08/09 08:02:44;;;;;;;1.33;0.73;;;27.10;91.30;;;;;;5124271;27;20514;-75
2023/08/09 08:05:11;;;;;;;3.88;1.35;;;26.90;91.50;;;;;;5125926;27;20055;-74
2023/08/09 08:07:38;;;;;;;1.98;1.13;;;27.20;90.80;;;;;;5136088;27;20130;-71
2023/08/09 08:10:08;;;;;;;1.40;0.85;;;26.80;89.20;;;;;;5127317;27;20089;-72
2023/08/09 08:12:38;;;;;;;2.55;1.00;;;26.30;90.90;;;;;;5120137;27;20046;-72
2023/08/09 08:15:06;;;;;;;0.80;0.80;;;26.80;89.50;;;;;;5121437;27;20047;-74
2023/08/09 08:17:32;;;;;;;2.47;1.00;;;27.00;90.70;;;;;;5119655;27;20051;-72
2023/08/09 08:19:58;;;;;;;1.60;0.82;;;27.10;89.10;;;;;;5121353;27;20046;-73
2023/08/09 08:22:24;;;;;;;1.92;0.82;;;27.30;87.50;;;;;;5121095;27;20057;-73
2023/08/09 08:24:50;;;;;;;2.03;1.10;;;27.10;89.60;;;;;;5122331;27;20070;-73
2023/08/09 08:27:15;;;;;;;1.15;1.02;;;27.10;88.90;;;;;;5130081;27;20130;-72
2023/08/09 08:29:41;;;;;;;3.97;0.90;;;27.30;89.60;;;;;;5109785;27;20051;-73
2023/08/09 08:32:07;;;;;;;1.40;0.82;;;27.10;89.00;;;;;;5123561;27;20062;-75
2023/08/09 08:34:32;;;;;;;1.65;0.70;;;26.90;89.40;;;;;;5122801;27;20039;-75
2023/08/09 08:36:59;;;;;;;3.22;1.23;;;26.60;88.60;;;;;;5143436;27;20439;-74
2023/08/09 08:39:25;;;;;;;2.65;0.82;;;25.60;89.30;;;;;;5124076;27;20057;-75
2023/08/09 08:41:51;;;;;;;0.90;0.70;;;25.80;90.00;;;;;;5127801;27;20047;-75
2023/08/09 08:44:17;;;;;;;1.48;0.90;;;26.30;88.10;;;;;;5111160;27;20064;-76
2023/08/09 08:46:43;;;;;;;1.30;0.95;;;26.70;87.80;;;;;;5124881;27;20027;-75
2023/08/09 08:49:22;;;;;;;2.88;1.50;;;26.50;87.50;;;;;;5130162;27;20851;-75
2023/08/09 08:51:50;;;;;;;1.08;0.60;;;26.80;85.30;;;;;;5136514;27;20050;-73
2023/08/09 08:54:16;;;;;;;1.30;0.70;;;26.10;83.40;;;;;;5110879;27;20062;-75
2023/08/09 08:56:42;;;;;;;1.30;0.77;;;25.70;85.50;;;;;;5134163;27;20042;-76
2023/08/09 08:59:08;;;;;;;2.35;0.73;;;25.60;82.30;;;;;;5133584;27;20047;-75
2023/08/09 09:01:34;;;;;;;0.90;0.80;;;25.00;85.20;;;;;;5134894;27;20058;-74
2023/08/09 09:04:01;;;;;;;2.45;0.98;;;25.40;85.50;;;;;;5139564;27;20064;-75
2023/08/09 09:06:27;;;;;;;1.60;1.30;;;24.70;84.60;;;;;;5128905;27;20116;-76
2023/08/09 09:08:56;;;;;;;1.15;0.93;;;24.00;86.20;;;;;;5137946;27;20067;-75
2023/08/09 09:11:23;;;;;;;2.45;0.80;;;23.50;86.80;;;;;;5142398;27;20046;-75
2023/08/09 09:13:50;;;;;;;1.20;0.77;;;22.90;87.70;;;;;;5133482;27;20051;-75
2023/08/09 09:16:20;;;;;;;1.60;1.00;;;22.70;88.60;;;;;;5134030;27;20054;-76
2023/08/09 09:18:48;;;;;;;1.98;1.15;;;22.40;88.40;;;;;;5132532;27;20061;-78
2023/08/09 09:21:18;;;;;;;0.93;0.60;;;22.60;89.10;;;;;;5128761;27;20118;-75
2023/08/09 09:23:44;;;;;;;1.30;0.93;;;22.80;89.40;;;;;;5125269;27;20051;-76
2023/08/09 09:26:15;;;;;;;1.77;1.17;;;23.00;88.50;;;;;;5109216;27;20446;-77
2023/08/09 09:28:47;;;;;;;3.50;1.05;;;23.80;88.80;;;;;;5104749;27;20056;-75
2023/08/09 09:31:14;;;;;;;;;;;24.10;87.30;;;;;;5091974;28;20822;-76
2023/08/09 09:33:45;;;;;;;1.27;0.75;;;23.80;87.00;;;;;;5095460;28;20475;-75
2023/08/09 09:36:12;;;;;;;1.57;0.90;;;24.20;88.60;;;;;;5092275;28;20389;-75
2023/08/09 09:38:38;;;;;;;1.00;0.80;;;25.00;88.30;;;;;;5094274;28;20043;-77
2023/08/09 09:41:07;;;;;;;2.97;1.35;;;25.30;87.70;;;;;;5098484;28;20093;-76
2023/08/09 09:43:33;;;;;;;0.80;0.60;;;24.60;88.20;;;;;;5093281;28;20768;-76
2023/08/09 09:45:59;;;;;;;1.63;1.08;;;24.80;88.30;;;;;;5098742;28;20036;-76
2023/08/09 09:48:27;;;;;;;3.17;1.38;;;25.40;88.70;;;;;;5091580;28;20168;-76
2023/08/09 09:50:54;;;;;;;1.08;0.70;;;25.20;88.50;;;;;;5094221;28;20098;-76
2023/08/09 09:53:20;;;;;;;2.85;1.30;;;25.10;88.90;;;;;;5095815;28;20055;-76
2023/08/09 09:55:46;;;;;;;2.83;1.10;;;25.70;89.30;;;;;;5095322;28;20132;-76
2023/08/09 09:58:13;;;;;;;3.35;1.00;;;25.60;86.20;;;;;;5101812;28;20058;-76
2023/08/09 10:00:46;;;;;;;1.95;1.20;;;24.80;87.60;;;;;;5102788;28;20315;-75
2023/08/09 10:03:17;;;;;;;1.60;1.50;;;24.40;86.40;;;;;;5090818;28;20471;-77
2023/08/09 10:05:45;;;;;;;0.70;0.70;;;24.70;89.50;;;;;;5083757;28;20039;-74
2023/08/09 10:08:12;;;;;;;1.20;0.95;;;25.40;88.10;;;;;;5098317;28;20057;-76
2023/08/09 10:10:39;;;;;;;0.98;0.70;;;25.70;88.20;;;;;;5083463;28;20095;-76
2023/08/09 10:13:07;;;;;;;1.08;0.85;;;26.30;87.40;;;;;;5091674;28;20043;-77
2023/08/09 10:15:44;;;;;;;3.05;0.90;;;26.70;87.70;;;;;;5093000;28;20110;-76
2023/08/09 10:18:33;;;;;;;2.35;0.65;;;26.90;88.70;;;;;;5085886;28;20836;-77
2023/08/09 10:21:01;;;;;;;1.23;0.95;;;26.60;85.80;;;;;;5089279;28;20205;-76
2023/08/09 10:23:28;;;;;;;1.75;0.98;;;25.60;86.50;;;;;;5087487;28;20040;-77
2023/08/09 10:25:55;;;;;;;1.20;0.80;;;24.60;85.60;;;;;;5089032;28;20035;-76
2023/08/09 10:28:45;;;;;;;2.15;0.90;;;23.70;85.50;;;;;;5091534;27;20125;-77
2023/08/09 10:31:13;;;;;;;2.08;0.95;;;23.20;88.00;;;;;;5123180;27;20061;-77
2023/08/09 10:34:07;;;;;;;1.48;0.93;;;22.80;89.40;;;;;;5126486;27;20861;-76
2023/08/09 10:36:34;;;;;;;2.67;0.98;;;23.90;89.70;;;;;;5118595;27;20054;-75
2023/08/09 10:39:08;;;;;;;2.65;1.30;;;24.30;86.50;;;;;;5114713;27;20465;-76
2023/08/09 10:41:34;;;;;;;1.88;1.00;;;23.90;88.40;;;;;;5109758;27;20415;-76
2023/08/09 10:44:03;;;;;;;1.13;0.88;;;23.20;88.10;;;;;;5132971;27;20050;-76
2023/08/09 10:46:33;;;;;;;1.83;1.23;;;22.90;88.60;;;;;;5126936;27;20039;-77
2023/08/09 10:49:00;;;;;;;1.85;1.70;;;22.50;88.90;;;;;;5132604;27;20051;-76
2023/08/09 10:51:26;;;;;;;2.45;1.15;;;22.30;89.70;;;;;;5124467;27;20057;-76
2023/08/09 10:54:04;;;;;;;2.15;1.00;;;22.10;89.90;;;;;;5136389;27;20043;-77
2023/08/09 10:56:34;;;;;;;4.22;1.27;;;22.50;89.40;;;;;;5135249;27;20217;-77
2023/08/09 10:59:21;;;;;;;2.80;1.00;;;23.40;90.60;;;;;;5119050;27;20451;-77
2023/08/09 11:01:48;;;;;;;1.80;1.10;;;23.60;90.20;;;;;;5125688;27;20047;-76
2023/08/09 11:04:17;;;;;;;1.20;1.00;;;23.20;90.00;;;;;;5140139;27;20055;-77
2023/08/09 11:06:45;;;;;;;1.75;1.15;;;22.90;90.10;;;;;;5129830;27;20042;-77
2023/08/09 11:09:12;;;;;;;2.28;1.13;;;22.70;88.40;;;;;;5132799;27;20186;-77
2023/08/09 11:11:40;;;;;;;1.90;0.90;;;22.50;89.80;;;;;;5136930;27;20047;-77
2023/08/09 11:14:07;;;;;;;2.08;1.17;;;22.60;90.00;;;;;;5140373;27;20137;-77
2023/08/09 11:16:33;;;;;;;2.53;0.90;;;22.90;90.30;;;;;;5140245;27;20113;-78
2023/08/09 11:19:12;;;;;;;2.03;1.23;;;22.90;89.80;;;;;;5115073;27;20134;-77
2023/08/09 11:21:49;;;;;;;3.22;1.15;;;22.90;90.10;;;;;;5133651;27;20046;-77
2023/08/09 11:24:21;;;;;;;3.58;1.35;;;22.80;89.90;;;;;;5129628;27;20476;-77
2023/08/09 11:26:56;;;;;;;2.53;1.63;;;22.90;89.10;;;;;;5135829;27;20047;-77
2023/08/09 11:29:27;;;;;;;2.85;1.23;;;22.90;89.60;;;;;;5121449;27;20523;-76
2023/08/09 11:31:54;;;;;;;0.90;0.90;;;22.90;89.30;;;;;;5124372;27;20051;-77
2023/08/09 11:34:22;;;;;;;2.53;1.15;;;23.00;89.70;;;;;;5123707;27;20035;-77
2023/08/09 11:36:50;;;;;;;1.25;1.10;;;23.20;90.20;;;;;;5106628;27;20063;-77
2023/08/09 11:39:17;;;;;;;2.20;1.08;;;23.00;89.30;;;;;;5129585;27;20089;-77
2023/08/09 11:41:55;;;;;;;1.80;1.17;;;22.70;89.70;;;;;;5134391;27;20133;-77
2023/08/09 11:44:34;;;;;;;1.65;0.98;;;22.60;90.20;;;;;;5107607;28;20145;-77
2023/08/09 11:47:01;;;;;;;1.30;1.20;;;22.80;90.70;;;;;;5111507;27;20054;-77
2023/08/09 11:49:27;;;;;;;1.67;1.13;;;22.90;89.20;;;;;;5127548;27;20459;-77
2023/08/09 11:51:53;;;;;;;1.63;1.20;;;23.00;88.30;;;;;;5122252;27;20527;-77
2023/08/09 11:54:19;;;;;;;1.85;1.05;;;23.20;89.20;;;;;;5121293;27;20047;-77
2023/08/09 11:56:45;;;;;;;1.73;1.40;;;23.50;90.00;;;;;;5128465;27;20065;-76
2023/08/09 11:59:11;;;;;;;1.20;1.00;;;23.70;90.00;;;;;;5128440;27;20055;-76
2023/08/09 12:01:44;;;;;;;2.13;1.30;;;23.80;89.50;;;;;;5140231;27;20054;-76
2023/08/09 12:04:13;;;;;;;1.92;1.20;;;23.90;90.10;;;;;;5144915;27;20057;-78
2023/08/09 12:06:48;;;;;;;1.25;1.15;;;23.70;88.70;;;;;;5138485;27;20062;-76
2023/08/09 12:09:35;;;;;;;1.75;1.10;;;23.60;89.80;;;;;;5142180;27;20043;-77
2023/08/09 12:12:09;;;;;;;2.97;1.23;;;23.60;90.10;;;;;;5132496;27;20055;-77
2023/08/09 12:14:49;;;;;;;2.05;1.20;;;23.70;90.30;;;;;;5127739;27;20051;-77
2023/08/09 12:17:26;;;;;;;1.17;1.10;;;23.70;90.30;;;;;;5126177;27;20628;-77
2023/08/09 12:20:04;;;;;;;2.38;1.20;;;23.90;90.70;;;;;;5113508;27;20513;-77
2023/08/09 12:22:31;;;;;;;2.45;1.33;;;24.00;90.30;;;;;;5132448;27;20131;-77
2023/08/09 12:24:58;;;;;;;1.52;1.25;;;24.00;90.00;;;;;;5131752;27;20062;-76
2023/08/09 12:27:24;;;;;;;2.15;1.20;;;23.90;89.40;;;;;;5133137;27;20051;-75
2023/08/09 12:29:50;;;;;;;1.60;1.50;;;24.10;89.70;;;;;;5122696;27;20091;-76
2023/08/09 12:32:17;;;;;;;4.38;1.30;;;23.90;89.40;;;;;;5107766;27;20056;-76
2023/08/09 12:34:44;;;;;;;1.38;1.20;;;23.80;90.00;;;;;;5109913;27;20104;-77
2023/08/09 12:37:11;;;;;;;2.65;1.27;;;23.80;89.90;;;;;;5117839;27;20074;-76
2023/08/09 12:39:36;;;;;;;1.20;1.10;;;23.60;89.60;;;;;;5111644;27;20055;-78
2023/08/09 12:42:03;;;;;;;3.17;1.30;;;23.40;90.20;;;;;;5117668;27;20050;-76
2023/08/09 12:44:29;;;;;;;2.17;1.23;;;22.90;90.30;;;;;;5103136;27;20492;-76
2023/08/09 12:46:55;;;;;;;1.70;1.35;;;22.50;90.20;;;;;;5111513;27;20039;-77
2023/08/09 12:49:21;;;;;;;1.40;1.30;;;22.20;90.50;;;;;;5115980;27;20039;-77